Time;durP1;ratioP1;P1;durP2;ratioP2;P2;SDS_P1;SDS_P2;PMS_P1;PMS_P2;Temp;Humidity;BMP_temperature;BMP_pressure;BME280_temperature;BME280_humidity;BME280_pressure;Samples;Min_cycle;Max_cycle;Signal;HPM_P1;HPM_P2
2022/12/08 00:17:49;;;;;;;0.82;0.50;;;-2.50;99.90;;;;;;21114562;22;20064;-62
2022/12/08 00:27:59;;;;;;;0.75;0.30;;;-2.50;99.90;;;;;;21081487;22;20468;31
2022/12/08 00:38:03;;;;;;;0.75;0.40;;;-2.50;99.90;;;;;;21019156;22;20472;-58
2022/12/08 00:48:06;;;;;;;1.00;0.40;;;-2.60;99.90;;;;;;21139044;22;20052;-60
2022/12/08 00:58:08;;;;;;;0.85;0.40;;;-2.80;99.90;;;;;;21052038;22;20079;-59
2022/12/08 01:08:10;;;;;;;0.68;0.30;;;-2.90;99.90;;;;;;21078044;22;20068;-61
2022/12/08 01:18:13;;;;;;;0.65;0.40;;;-3.10;99.90;;;;;;21111580;22;20406;-60
2022/12/08 01:28:16;;;;;;;0.80;0.40;;;-3.10;99.90;;;;;;21095074;22;20075;-59
2022/12/08 01:38:18;;;;;;;1.73;0.50;;;-3.10;99.90;;;;;;21102480;22;20057;-61
2022/12/08 01:48:24;;;;;;;0.93;0.40;;;-2.90;99.90;;;;;;21091596;22;20056;-60
2022/12/08 01:58:36;;;;;;;2.97;0.70;;;-3.00;99.90;;;;;;21070157;22;20049;-58
2022/12/08 02:08:40;;;;;;;1.90;1.00;;;-2.90;99.90;;;;;;21111428;22;20036;-54
2022/12/08 02:19:01;;;;;;;2.28;1.10;;;-2.90;99.90;;;;;;20976760;22;20069;31
2022/12/08 02:29:55;;;;;;;2.90;1.15;;;-3.00;99.90;;;;;;21004957;22;20049;-58
2022/12/08 02:40:15;;;;;;;1.30;0.77;;;-3.00;99.90;;;;;;21023274;22;20021;-59
2022/12/08 02:50:18;;;;;;;1.58;0.60;;;-3.20;99.90;;;;;;21889200;22;20045;-60
2022/12/08 03:00:22;;;;;;;1.02;0.60;;;-3.20;99.90;;;;;;21024639;22;20046;-59
2022/12/08 03:10:42;;;;;;;2.10;0.93;;;-3.10;99.90;;;;;;21086786;22;20099;-60
2022/12/08 03:20:47;;;;;;;1.70;1.00;;;-3.10;99.90;;;;;;21110024;22;20089;-60
2022/12/08 03:30:54;;;;;;;1.92;0.77;;;-3.10;99.90;;;;;;21082858;22;20079;-61
2022/12/08 03:51:18;;;;;;;1.27;0.80;;;-3.10;99.90;;;;;;21082189;22;20442;-56
2022/12/08 04:01:20;;;;;;;1.58;0.57;;;-3.10;99.90;;;;;;21119491;22;20052;-61
2022/12/08 04:11:22;;;;;;;0.80;0.50;;;-3.10;99.90;;;;;;21049568;22;20407;-61
2022/12/08 04:21:25;;;;;;;2.28;0.60;;;-3.10;99.90;;;;;;21008867;22;1994195;-59
2022/12/08 04:31:28;;;;;;;0.90;0.40;;;-3.10;99.90;;;;;;21144151;22;20061;-54
2022/12/08 04:41:30;;;;;;;0.73;0.38;;;-3.10;99.90;;;;;;21056702;22;20107;-58
2022/12/08 04:51:32;;;;;;;0.82;0.30;;;-3.10;99.90;;;;;;21078324;22;20119;-60
2022/12/08 05:01:34;;;;;;;1.27;0.57;;;-3.10;99.90;;;;;;21061330;22;20057;-55
2022/12/08 05:11:40;;;;;;;0.60;0.28;;;-3.20;99.90;;;;;;21051363;22;20114;-58
2022/12/08 05:21:43;;;;;;;0.88;0.30;;;-3.30;99.90;;;;;;21054808;22;20514;-59
2022/12/08 05:31:46;;;;;;;1.75;0.57;;;-3.20;99.90;;;;;;21109799;22;20056;-60
2022/12/08 05:41:48;;;;;;;0.57;0.40;;;-3.30;99.90;;;;;;21106499;22;20102;-60
2022/12/08 05:52:05;;;;;;;0.88;0.30;;;-3.40;99.90;;;;;;21047440;22;20139;-60
2022/12/08 06:02:08;;;;;;;1.95;0.30;;;-3.60;99.90;;;;;;21022234;22;20470;-58
2022/12/08 06:22:57;;;;;;;1.27;0.50;;;-3.60;99.90;;;;;;20858986;23;20057;-59
2022/12/08 06:33:01;;;;;;;2.08;1.10;;;-3.60;99.90;;;;;;20921973;23;20664;-57
2022/12/08 06:43:03;;;;;;;2.47;1.48;;;-3.60;99.90;;;;;;20914173;23;20124;-61
2022/12/08 06:53:05;;;;;;;2.97;1.70;;;-3.60;99.90;;;;;;21002493;23;20136;-57
2022/12/08 07:03:13;;;;;;;4.25;1.70;;;-3.50;99.90;;;;;;20916444;23;20064;31
2022/12/08 07:13:16;;;;;;;4.80;2.22;;;-3.50;99.90;;;;;;20869915;23;20053;-60
2022/12/08 07:23:18;;;;;;;4.88;2.08;;;-3.30;99.90;;;;;;20900055;23;20045;-57
2022/12/08 07:44:23;;;;;;;3.75;2.40;;;-2.80;99.90;;;;;;20201971;23;20157;-61
2022/12/08 07:54:26;;;;;;;4.20;2.17;;;-2.60;99.90;;;;;;20214101;23;20122;-58
2022/12/08 08:04:29;;;;;;;2.35;1.00;;;-2.00;99.90;;;;;;20209939;23;20061;-60
2022/12/08 08:14:31;;;;;;;3.60;2.00;;;-1.30;99.90;;;;;;20219226;23;21133;-59
2022/12/08 08:25:06;;;;;;;1.90;1.20;;;-0.50;99.90;;;;;;20166733;23;20123;-59
2022/12/08 08:35:15;;;;;;;2.88;1.55;;;0.20;99.90;;;;;;20193965;23;20576;31
2022/12/08 08:45:19;;;;;;;2.20;1.15;;;0.90;99.90;;;;;;20193521;23;20061;-59
2022/12/08 08:55:21;;;;;;;1.55;1.00;;;1.50;99.90;;;;;;20249631;23;20508;-55
2022/12/08 09:05:22;;;;;;;1.00;0.70;;;2.30;99.90;;;;;;20252505;23;20069;-58
2022/12/08 09:15:24;;;;;;;2.10;1.40;;;2.80;99.90;;;;;;20253765;23;20129;-60
2022/12/08 09:25:28;;;;;;;1.30;0.85;;;3.40;99.90;;;;;;20251497;23;20426;-59
2022/12/08 09:35:30;;;;;;;1.27;0.70;;;4.00;99.90;;;;;;20176357;23;20118;-59
2022/12/08 09:45:35;;;;;;;1.63;0.90;;;4.70;99.90;;;;;;20252845;23;20468;-59
2022/12/08 09:55:51;;;;;;;1.98;0.82;;;5.00;99.90;;;;;;20244067;23;20062;-60
2022/12/08 10:06:27;;;;;;;1.27;0.70;;;5.30;99.90;;;;;;20247664;23;20130;-60
2022/12/08 10:16:35;;;;;;;1.95;0.88;;;5.30;99.90;;;;;;20215729;23;20470;-59
2022/12/08 10:26:37;;;;;;;1.65;0.90;;;5.50;99.90;;;;;;20256918;23;20414;-53
2022/12/08 10:36:49;;;;;;;1.35;0.95;;;5.30;99.90;;;;;;20245786;23;20061;-59
2022/12/08 10:46:58;;;;;;;1.60;1.13;;;5.70;99.90;;;;;;20199647;23;20576;31
2022/12/08 10:57:00;;;;;;;2.60;1.60;;;5.70;99.90;;;;;;20112517;23;20122;-61
2022/12/08 11:07:05;;;;;;;2.58;1.60;;;5.20;99.90;;;;;;20259937;23;20146;-60
2022/12/08 11:17:12;;;;;;;2.45;1.50;;;5.10;99.90;;;;;;20278236;23;20365;-62
2022/12/08 11:27:13;;;;;;;3.53;1.80;;;5.30;99.90;;;;;;20290636;23;20659;-61
2022/12/08 11:37:31;;;;;;;2.75;1.98;;;5.20;99.90;;;;;;20270058;23;20037;-59
2022/12/08 11:47:48;;;;;;;3.35;2.20;;;5.20;99.90;;;;;;20263397;23;20053;31
2022/12/08 11:58:26;;;;;;;4.05;2.70;;;5.30;99.90;;;;;;20186460;23;20082;-66
2022/12/08 12:08:51;;;;;;;3.50;2.53;;;4.50;99.90;;;;;;20294404;23;20061;31
2022/12/08 12:19:09;;;;;;;3.97;2.35;;;4.20;99.90;;;;;;20253463;23;19980;31
2022/12/08 12:29:32;;;;;;;6.47;2.50;;;4.60;99.90;;;;;;20226124;23;20061;-60
2022/12/08 12:39:54;;;;;;;3.47;2.45;;;4.60;99.90;;;;;;20234236;23;20066;-61
2022/12/08 12:50:21;;;;;;;3.22;2.15;;;4.80;99.90;;;;;;20269388;23;20113;-59
2022/12/08 13:00:26;;;;;;;4.15;2.60;;;5.10;99.90;;;;;;20219555;23;1257190;-61
2022/12/08 13:10:34;;;;;;;4.30;2.80;;;4.50;99.90;;;;;;20292619;23;21015;-60
2022/12/08 13:20:49;;;;;;;4.32;2.92;;;3.20;99.90;;;;;;20285917;23;20062;-67
2022/12/08 13:31:25;;;;;;;4.72;3.05;;;2.40;99.90;;;;;;20258436;23;20113;-61
2022/12/08 13:42:26;;;;;;;6.55;3.92;;;1.80;99.90;;;;;;20255094;23;20104;31
2022/12/08 13:53:17;;;;;;;4.43;2.93;;;1.30;99.90;;;;;;20233204;23;20056;-59
2022/12/08 14:03:19;;;;;;;5.43;3.58;;;1.00;99.90;;;;;;20263644;23;20057;-59
2022/12/08 14:13:20;;;;;;;5.07;3.80;;;0.80;99.90;;;;;;20227882;23;20436;-59
2022/12/08 14:23:22;;;;;;;5.10;3.58;;;0.70;99.90;;;;;;20242331;23;20054;-60
2022/12/08 14:33:26;;;;;;;5.93;3.95;;;0.60;99.90;;;;;;20219338;23;20113;-69
2022/12/08 14:43:28;;;;;;;5.53;3.47;;;0.40;99.90;;;;;;20271459;23;20094;-60
2022/12/08 14:53:43;;;;;;;3.88;2.83;;;0.20;99.90;;;;;;20293128;23;20066;-60
2022/12/08 15:03:47;;;;;;;5.13;3.33;;;0.00;99.90;;;;;;20242722;23;20428;-59
2022/12/08 15:13:53;;;;;;;5.22;2.45;;;-0.30;99.90;;;;;;20242727;23;20024;-58
2022/12/08 15:24:01;;;;;;;5.40;2.90;;;-0.40;99.90;;;;;;20207131;23;20513;31
2022/12/08 15:34:03;;;;;;;4.53;2.88;;;-0.40;99.90;;;;;;20160844;23;20517;-55
2022/12/08 15:44:04;;;;;;;5.05;2.78;;;-0.40;99.90;;;;;;20212936;23;20057;-61
2022/12/08 15:54:06;;;;;;;5.75;2.42;;;-0.60;99.90;;;;;;20222238;23;20054;-58
2022/12/08 16:04:12;;;;;;;2.75;1.77;;;-0.90;99.90;;;;;;20258419;23;20102;-61
2022/12/08 16:14:14;;;;;;;4.10;2.90;;;-1.10;99.90;;;;;;20262252;23;20070;-59
2022/12/08 16:24:15;;;;;;;3.45;2.28;;;-1.20;99.90;;;;;;20219344;23;20144;-60
2022/12/08 16:34:17;;;;;;;4.18;2.35;;;-1.20;99.90;;;;;;20255111;23;20061;-58
2022/12/08 16:44:18;;;;;;;2.80;1.70;;;-0.90;99.90;;;;;;20257002;23;20065;-59
2022/12/08 16:54:20;;;;;;;1.90;1.00;;;-0.30;99.90;;;;;;20264642;23;20058;-59
2022/12/08 17:04:22;;;;;;;3.30;0.60;;;0.10;99.90;;;;;;20250540;23;20066;-60
2022/12/08 17:14:23;;;;;;;1.40;0.50;;;0.30;99.90;;;;;;20204067;23;20496;-57
2022/12/08 17:24:27;;;;;;;1.13;0.77;;;0.60;99.90;;;;;;20246154;23;20054;-59
2022/12/08 17:34:29;;;;;;;0.85;0.60;;;0.50;99.90;;;;;;20247249;23;20065;-56
2022/12/08 17:44:32;;;;;;;0.60;0.47;;;1.30;99.90;;;;;;20241374;23;20118;-62
2022/12/08 17:54:35;;;;;;;1.10;0.50;;;1.30;99.90;;;;;;20228127;23;20142;-55
2022/12/08 18:04:36;;;;;;;1.40;0.50;;;1.80;99.90;;;;;;20224917;23;20066;-59
2022/12/08 18:14:38;;;;;;;0.73;0.50;;;2.30;99.90;;;;;;20254754;23;20095;-62
2022/12/08 18:24:41;;;;;;;1.45;0.57;;;2.20;99.90;;;;;;20224997;23;20066;-60
2022/12/08 18:34:43;;;;;;;1.10;0.88;;;2.00;99.90;;;;;;20207628;23;20053;-61
2022/12/08 18:44:45;;;;;;;1.55;0.70;;;1.70;99.90;;;;;;20256312;23;20099;-60
2022/12/08 18:54:47;;;;;;;1.95;0.75;;;1.20;99.90;;;;;;20184015;23;20501;-59
2022/12/08 19:04:49;;;;;;;1.65;0.75;;;1.80;99.90;;;;;;20238067;23;20114;-62
2022/12/08 19:14:51;;;;;;;2.53;1.30;;;1.60;99.90;;;;;;20214025;23;20126;-54
2022/12/08 19:24:53;;;;;;;4.60;1.23;;;1.20;99.90;;;;;;20259466;23;20065;-59
2022/12/08 19:34:54;;;;;;;0.98;0.68;;;0.60;99.90;;;;;;20231249;23;20050;-55
2022/12/08 19:45:18;;;;;;;2.45;1.00;;;0.50;99.90;;;;;;20191528;23;20784;-59
2022/12/08 19:55:22;;;;;;;1.45;0.90;;;1.40;99.90;;;;;;20142996;23;20061;-61
2022/12/08 20:05:25;;;;;;;1.92;0.75;;;1.30;99.90;;;;;;20196138;23;20058;-53
2022/12/08 20:15:27;;;;;;;1.33;0.70;;;1.40;99.90;;;;;;20250386;23;20080;-59
2022/12/08 20:25:28;;;;;;;2.22;1.20;;;1.70;99.90;;;;;;20224871;23;20118;-53
2022/12/08 20:35:45;;;;;;;2.45;1.33;;;1.40;99.90;;;;;;20235333;23;20066;-44
2022/12/08 20:45:58;;;;;;;2.03;1.27;;;0.90;99.90;;;;;;20214561;23;20053;-54
2022/12/08 20:56:00;;;;;;;1.70;1.00;;;0.90;99.90;;;;;;20159730;23;20125;-61
2022/12/08 21:06:02;;;;;;;1.95;1.20;;;2.00;99.90;;;;;;20232961;23;20118;-59
2022/12/08 21:16:09;;;;;;;2.08;1.23;;;1.60;99.90;;;;;;20229360;23;20066;-59
2022/12/08 21:26:14;;;;;;;1.75;1.13;;;1.20;99.90;;;;;;20244661;23;20190;-59
2022/12/08 21:36:18;;;;;;;2.60;1.30;;;1.00;99.90;;;;;;20201922;23;1243191;-61
2022/12/08 21:46:20;;;;;;;1.98;1.17;;;1.00;99.90;;;;;;20192192;23;20114;-61
2022/12/08 21:56:22;;;;;;;1.85;1.23;;;0.90;99.90;;;;;;20247237;23;20066;-59
2022/12/08 22:06:24;;;;;;;1.92;1.20;;;0.90;99.90;;;;;;20249234;23;20061;-61
2022/12/08 22:16:25;;;;;;;3.45;1.45;;;0.90;99.90;;;;;;20223371;23;20061;-61
2022/12/08 22:26:27;;;;;;;2.53;1.40;;;0.90;99.90;;;;;;20252168;23;20049;-58
2022/12/08 22:36:29;;;;;;;2.55;1.73;;;0.80;99.90;;;;;;20198408;23;20073;-60
2022/12/08 22:46:30;;;;;;;2.13;1.48;;;0.80;99.90;;;;;;20242531;23;20809;-60
2022/12/08 22:56:32;;;;;;;2.83;1.90;;;0.80;99.90;;;;;;20227360;23;20118;-61
2022/12/08 23:06:34;;;;;;;2.65;1.85;;;0.60;99.90;;;;;;20234088;23;20568;-60
2022/12/08 23:16:35;;;;;;;4.32;2.30;;;0.50;99.90;;;;;;20344839;23;20110;-57
2022/12/08 23:26:37;;;;;;;5.32;3.30;;;0.30;99.90;;;;;;20243324;23;20058;-61
2022/12/08 23:36:39;;;;;;;6.75;3.22;;;0.10;99.90;;;;;;20247520;23;20114;-59
2022/12/08 23:46:41;;;;;;;3.95;2.83;;;0.00;99.90;;;;;;20246935;23;20069;-62
2022/12/08 23:56:43;;;;;;;5.78;3.00;;;-0.10;99.90;;;;;;20221640;23;20114;-59
